createdAt,value
2017-09-18T00:01:31.782Z,91.80
2017-09-18T00:03:59.289Z,91.80
2017-09-18T00:06:26.821Z,92.10
2017-09-18T00:08:54.381Z,92.20
2017-09-18T00:11:21.880Z,92.40
2017-09-18T00:13:49.413Z,92.40
2017-09-18T00:16:16.925Z,92.50
2017-09-18T00:18:44.413Z,92.50
2017-09-18T00:21:11.951Z,92.60
2017-09-18T00:23:39.448Z,92.70
2017-09-18T00:26:06.995Z,92.80
2017-09-18T00:28:34.490Z,92.80
2017-09-18T00:31:01.986Z,92.90
2017-09-18T00:33:29.522Z,93.00
2017-09-18T00:35:57.018Z,93.00
2017-09-18T00:38:24.531Z,93.10
2017-09-18T00:40:52.825Z,93.20
2017-09-18T00:43:20.321Z,93.20
2017-09-18T00:45:48.611Z,93.20
2017-09-18T00:48:16.121Z,93.20
2017-09-18T00:50:44.393Z,93.30
2017-09-18T00:53:12.683Z,93.50
2017-09-18T00:55:40.188Z,93.40
2017-09-18T00:58:08.467Z,93.30
2017-09-18T01:00:36.779Z,93.50
2017-09-18T01:03:04.277Z,93.40
2017-09-18T01:05:31.785Z,93.30
2017-09-18T01:07:59.301Z,93.40
2017-09-18T01:10:26.805Z,93.40
2017-09-18T01:12:54.329Z,93.30
2017-09-18T01:15:21.815Z,93.90
2017-09-18T01:17:49.361Z,94.00
2017-09-18T01:20:16.862Z,94.10
2017-09-18T01:22:45.122Z,94.20
2017-09-18T01:25:13.413Z,94.20
2017-09-18T01:27:40.930Z,94.20
2017-09-18T01:30:09.203Z,93.80
2017-09-18T01:32:37.490Z,93.80
2017-09-18T01:35:05.208Z,93.80
2017-09-18T01:37:33.466Z,94.30
2017-09-18T01:40:01.745Z,94.60
2017-09-18T01:42:29.241Z,94.50
2017-09-18T01:44:56.749Z,93.90
2017-09-18T01:47:24.253Z,94.10
2017-09-18T01:49:52.535Z,94.10
2017-09-18T01:52:20.045Z,94.00
2017-09-18T01:54:47.546Z,94.20
2017-09-18T01:57:15.076Z,94.40
2017-09-18T01:59:42.569Z,94.20
2017-09-18T02:02:10.053Z,94.30
2017-09-18T02:04:37.578Z,94.40
2017-09-18T02:07:05.833Z,94.90
2017-09-18T02:09:34.124Z,94.90
2017-09-18T02:12:01.621Z,94.90
2017-09-18T02:14:29.798Z,95.20
2017-09-18T02:16:58.086Z,95.10
2017-09-18T02:19:25.582Z,95.00
2017-09-18T02:21:53.114Z,95.20
2017-09-18T02:24:20.614Z,95.40
2017-09-18T02:26:48.101Z,95.50
2017-09-18T02:29:15.696Z,95.10
2017-09-18T02:31:43.192Z,94.90
2017-09-18T02:34:10.718Z,94.90
2017-09-18T02:36:38.206Z,95.00
2017-09-18T02:39:06.498Z,95.30
2017-09-18T02:41:33.986Z,95.30
2017-09-18T02:44:01.521Z,95.20
2017-09-18T02:46:29.008Z,95.30
2017-09-18T02:48:56.503Z,95.20
2017-09-18T02:51:24.038Z,95.20
2017-09-18T02:53:51.530Z,94.90
2017-09-18T02:56:19.786Z,94.60
2017-09-18T02:58:48.066Z,94.70
2017-09-18T03:01:15.558Z,94.70
2017-09-18T03:03:43.084Z,94.60
2017-09-18T03:06:11.346Z,94.20
2017-09-18T03:08:38.857Z,94.20
2017-09-18T03:11:06.449Z,94.00
2017-09-18T03:13:33.953Z,94.00
2017-09-18T03:16:01.433Z,94.00
2017-09-18T03:18:28.970Z,94.10
2017-09-18T03:20:56.458Z,94.10
2017-09-18T03:23:24.760Z,93.80
2017-09-18T03:25:52.241Z,93.80
2017-09-18T03:28:19.769Z,93.60
2017-09-18T03:30:47.305Z,93.50
2017-09-18T03:33:14.799Z,93.60
2017-09-18T03:35:42.298Z,93.70
2017-09-18T03:38:09.841Z,93.60
2017-09-18T03:40:37.341Z,93.70
2017-09-18T03:43:06.357Z,93.50
2017-09-18T03:45:34.050Z,93.20
2017-09-18T03:48:02.307Z,93.30
2017-09-18T03:50:30.565Z,93.30
2017-09-18T03:52:58.874Z,93.30
2017-09-18T03:55:26.374Z,93.30
2017-09-18T03:57:53.869Z,93.20
2017-09-18T04:00:21.394Z,93.30
2017-09-18T04:02:48.921Z,93.30
2017-09-18T04:05:16.421Z,93.30
2017-09-18T04:07:43.947Z,93.30
2017-09-18T04:10:12.432Z,93.20
2017-09-18T04:12:39.967Z,93.30
2017-09-18T04:15:07.449Z,93.20
2017-09-18T04:17:34.957Z,93.50
2017-09-18T04:20:02.494Z,93.40
2017-09-18T04:22:29.986Z,93.40
2017-09-18T04:24:57.514Z,93.30
2017-09-18T04:27:25.766Z,93.60
2017-09-18T04:29:54.017Z,93.50
2017-09-18T04:32:22.302Z,93.60
2017-09-18T04:34:50.546Z,93.50
2017-09-18T04:37:18.841Z,93.70
2017-09-18T04:39:46.341Z,93.60
2017-09-18T04:42:13.837Z,93.70
2017-09-18T04:44:41.356Z,93.70
2017-09-18T04:47:08.844Z,93.80
2017-09-18T04:49:36.350Z,93.70
2017-09-18T04:52:03.865Z,93.70
2017-09-18T04:54:31.393Z,93.70
2017-09-18T04:56:58.893Z,93.80
2017-09-18T04:59:26.396Z,93.90
2017-09-18T05:01:53.909Z,94.10
2017-09-18T05:04:21.442Z,94.00
2017-09-18T05:06:48.938Z,94.00
2017-09-18T05:09:16.433Z,94.20
2017-09-18T05:11:43.957Z,94.20
2017-09-18T05:14:11.453Z,94.40
2017-09-18T05:16:39.749Z,94.40
2017-09-18T05:19:07.314Z,94.40
2017-09-18T05:21:34.799Z,94.50
2017-09-18T05:24:02.338Z,94.50
2017-09-18T05:26:29.817Z,94.60
2017-09-18T05:28:57.357Z,94.40
2017-09-18T05:31:24.851Z,94.20
2017-09-18T05:33:52.367Z,94.20
2017-09-18T05:36:20.015Z,94.20
2017-09-18T05:38:47.534Z,94.40
2017-09-18T05:41:15.029Z,94.30
2017-09-18T05:43:42.545Z,94.20
2017-09-18T05:46:10.035Z,94.30
2017-09-18T05:48:38.338Z,94.20
2017-09-18T05:51:05.824Z,94.20
2017-09-18T05:53:33.319Z,94.10
2017-09-18T05:56:00.851Z,94.00
2017-09-18T05:58:29.104Z,94.00
2017-09-18T06:00:56.603Z,93.90
2017-09-18T06:03:24.126Z,93.90
2017-09-18T06:05:51.656Z,93.40
2017-09-18T06:08:19.154Z,93.30
2017-09-18T06:10:46.669Z,93.30
2017-09-18T06:13:14.157Z,93.20
2017-09-18T06:15:42.455Z,93.10
2017-09-18T06:18:09.957Z,93.10
2017-09-18T06:20:38.234Z,93.30
2017-09-18T06:23:05.761Z,93.30
2017-09-18T06:25:34.043Z,93.30
2017-09-18T06:28:01.590Z,93.30
2017-09-18T06:30:29.077Z,93.20
2017-09-18T06:32:57.386Z,93.10
2017-09-18T06:35:24.880Z,93.10
2017-09-18T06:37:52.377Z,92.80
2017-09-18T06:40:19.897Z,92.90
2017-09-18T06:42:48.153Z,92.60
2017-09-18T06:45:16.433Z,92.50
2017-09-18T06:47:43.925Z,92.50
2017-09-18T06:50:11.452Z,93.10
2017-09-18T06:52:38.957Z,93.40
2017-09-18T06:55:06.486Z,93.50
2017-09-18T06:57:33.985Z,94.10
2017-09-18T07:00:01.526Z,94.60
2017-09-18T07:02:29.022Z,94.70
2017-09-18T07:04:57.290Z,95.20
2017-09-18T07:07:25.588Z,95.20
2017-09-18T07:09:53.100Z,95.20
2017-09-18T07:12:20.670Z,95.30
2017-09-18T07:14:48.162Z,95.80
2017-09-18T07:17:15.657Z,95.90
2017-09-18T07:19:43.171Z,96.10
2017-09-18T07:22:10.682Z,96.00
2017-09-18T07:24:38.222Z,95.80
2017-09-18T07:27:05.729Z,95.70
2017-09-18T07:29:33.225Z,95.60
2017-09-18T07:32:00.782Z,95.70
2017-09-18T07:34:29.055Z,96.00
2017-09-18T07:36:56.557Z,95.90
2017-09-18T07:39:24.073Z,95.60
2017-09-18T07:41:51.602Z,95.80
2017-09-18T07:44:19.128Z,96.10
2017-09-18T07:46:47.417Z,95.90
2017-09-18T07:49:14.900Z,95.90
2017-09-18T07:51:42.413Z,95.80
2017-09-18T07:54:09.915Z,96.20
2017-09-18T07:56:38.192Z,95.80
2017-09-18T07:59:05.681Z,95.80
2017-09-18T08:01:33.213Z,96.00
2017-09-18T08:04:00.726Z,96.00
2017-09-18T08:06:28.222Z,95.90
2017-09-18T08:08:55.741Z,96.10
2017-09-18T08:11:23.273Z,96.10
2017-09-18T08:13:50.791Z,95.80
2017-09-18T08:16:18.277Z,95.90
2017-09-18T08:18:45.797Z,96.10
2017-09-18T08:21:13.299Z,96.00
2017-09-18T08:23:41.619Z,96.20
2017-09-18T08:26:09.117Z,96.20
2017-09-18T08:28:36.618Z,96.10
2017-09-18T08:31:04.150Z,96.40
2017-09-18T08:33:31.641Z,96.50
2017-09-18T08:35:59.942Z,96.60
2017-09-18T08:38:27.432Z,96.50
2017-09-18T08:40:55.693Z,96.50
2017-09-18T08:43:23.994Z,96.50
2017-09-18T08:45:51.485Z,96.50
2017-09-18T08:48:18.974Z,96.40
2017-09-18T08:50:46.498Z,96.30
2017-09-18T08:53:14.766Z,96.70
2017-09-18T08:55:42.310Z,96.70
2017-09-18T08:58:09.813Z,95.90
2017-09-18T09:00:37.310Z,96.40
2017-09-18T09:03:04.827Z,95.70
2017-09-18T09:05:33.104Z,95.90
2017-09-18T09:08:00.658Z,95.90
2017-09-18T09:10:28.164Z,95.80
2017-09-18T09:12:56.417Z,95.50
2017-09-18T09:15:23.938Z,95.80
2017-09-18T09:17:51.450Z,96.00
2017-09-18T09:20:18.965Z,95.70
2017-09-18T09:22:47.252Z,94.50
2017-09-18T09:25:14.773Z,94.50
2017-09-18T09:27:42.306Z,94.20
2017-09-18T09:30:10.562Z,94.70
2017-09-18T09:32:38.847Z,93.90
2017-09-18T09:35:07.186Z,93.80
2017-09-18T09:37:35.495Z,93.70
2017-09-18T09:40:02.989Z,93.40
2017-09-18T09:42:30.477Z,93.70
2017-09-18T09:44:58.005Z,93.70
2017-09-18T09:47:25.510Z,93.80
2017-09-18T09:49:53.025Z,93.80
2017-09-18T09:52:20.514Z,93.90
2017-09-18T09:54:48.805Z,93.40
2017-09-18T09:57:16.293Z,93.40
2017-09-18T09:59:43.785Z,92.70
2017-09-18T10:02:11.317Z,93.30
2017-09-18T10:04:38.819Z,93.10
2017-09-18T10:07:06.309Z,93.10
2017-09-18T10:09:33.830Z,93.60
2017-09-18T10:12:02.105Z,92.70
2017-09-18T10:14:30.389Z,93.10
2017-09-18T10:16:57.885Z,93.10
2017-09-18T10:19:25.402Z,93.50
2017-09-18T10:21:52.887Z,93.40
2017-09-18T10:24:21.173Z,92.70
2017-09-18T10:26:48.666Z,92.70
2017-09-18T10:29:16.215Z,92.10
2017-09-18T10:31:43.708Z,91.80
2017-09-18T10:34:11.197Z,92.90
2017-09-18T10:36:38.717Z,92.00
2017-09-18T10:39:06.223Z,91.80
2017-09-18T10:41:33.737Z,91.90
2017-09-18T10:44:01.228Z,90.60
2017-09-18T10:46:28.754Z,90.50
2017-09-18T10:48:56.246Z,90.60
2017-09-18T10:51:23.737Z,91.10
2017-09-18T10:53:51.255Z,91.40
2017-09-18T10:56:19.537Z,89.20
2017-09-18T10:58:47.025Z,89.10
2017-09-18T11:01:14.538Z,90.00
2017-09-18T11:03:42.043Z,89.20
2017-09-18T11:06:10.325Z,88.20
2017-09-18T11:08:37.829Z,87.80
2017-09-18T11:11:05.342Z,87.20
2017-09-18T11:13:32.865Z,88.00
2017-09-18T11:16:01.148Z,86.30
2017-09-18T11:18:28.653Z,86.20
2017-09-18T11:20:56.945Z,84.90
2017-09-18T11:23:24.441Z,84.90
2017-09-18T11:25:52.733Z,86.60
2017-09-18T11:28:20.230Z,86.40
2017-09-18T11:30:47.758Z,85.70
2017-09-18T11:33:15.245Z,87.30
2017-09-18T11:35:43.505Z,86.10
2017-09-18T11:38:11.789Z,87.40
2017-09-18T11:40:39.285Z,87.40
2017-09-18T11:43:06.827Z,86.20
2017-09-18T11:45:34.357Z,85.30
2017-09-18T11:48:02.610Z,87.30
2017-09-18T11:50:30.100Z,86.60
2017-09-18T11:52:58.376Z,86.60
2017-09-18T11:55:25.868Z,86.60
2017-09-18T11:57:53.396Z,84.90
2017-09-18T12:00:20.878Z,82.50
2017-09-18T12:02:48.364Z,83.30
2017-09-18T12:05:15.876Z,84.00
2017-09-18T12:07:44.117Z,81.70
2017-09-18T12:10:11.626Z,81.70
2017-09-18T12:12:39.107Z,82.40
2017-09-18T12:15:06.620Z,83.30
2017-09-18T12:17:34.133Z,83.40
2017-09-18T12:20:01.620Z,84.20
2017-09-18T12:22:29.133Z,84.00
2017-09-18T12:24:56.630Z,82.60
2017-09-18T12:27:24.921Z,81.90
2017-09-18T12:29:52.409Z,81.70
2017-09-18T12:32:19.896Z,82.10
2017-09-18T12:34:47.425Z,80.60
2017-09-18T12:37:15.675Z,80.50
2017-09-18T12:39:43.155Z,80.50
2017-09-18T12:42:10.664Z,80.70
2017-09-18T12:44:38.921Z,80.80
2017-09-18T12:47:07.246Z,80.90
2017-09-18T12:49:34.736Z,80.20
2017-09-18T12:52:02.988Z,80.50
2017-09-18T12:54:30.509Z,80.40
2017-09-18T12:56:57.997Z,79.50
2017-09-18T12:59:25.491Z,80.70
2017-09-18T13:01:53.012Z,81.30
2017-09-18T13:04:20.525Z,81.80
2017-09-18T13:06:48.785Z,79.50
2017-09-18T13:09:16.297Z,79.50
2017-09-18T13:11:43.783Z,79.60
2017-09-18T13:14:11.296Z,80.90
2017-09-18T13:16:39.540Z,79.00
2017-09-18T13:19:07.058Z,78.90
2017-09-18T13:21:34.548Z,78.90
2017-09-18T13:24:02.824Z,78.70
2017-09-18T13:26:30.354Z,78.70
2017-09-18T13:28:58.610Z,77.40
2017-09-18T13:31:26.864Z,78.60
2017-09-18T13:33:55.154Z,77.80
2017-09-18T13:36:22.634Z,77.80
2017-09-18T13:38:50.120Z,78.30
2017-09-18T13:41:18.412Z,73.40
2017-09-18T13:43:45.905Z,73.40
2017-09-18T13:46:13.388Z,72.80
2017-09-18T13:48:40.907Z,74.30
2017-09-18T13:51:09.196Z,74.60
2017-09-18T13:53:36.744Z,74.60
2017-09-18T13:56:04.228Z,74.90
2017-09-18T13:58:31.720Z,74.60
2017-09-18T14:00:59.236Z,75.00
2017-09-18T14:03:26.733Z,74.80
2017-09-18T14:05:55.020Z,75.40
2017-09-18T14:08:22.541Z,75.40
2017-09-18T14:10:50.801Z,75.10
2017-09-18T14:13:19.088Z,74.20
2017-09-18T14:15:46.573Z,74.10
2017-09-18T14:18:14.062Z,74.50
2017-09-18T14:20:41.590Z,74.50
2017-09-18T14:23:09.845Z,75.10
2017-09-18T14:25:38.097Z,75.90
2017-09-18T14:28:05.609Z,75.90
2017-09-18T14:30:33.092Z,76.90
2017-09-18T14:33:01.390Z,77.70
2017-09-18T14:35:28.882Z,77.60
2017-09-18T14:37:56.375Z,80.10
2017-09-18T14:40:23.904Z,83.50
2017-09-18T14:42:51.390Z,84.80
2017-09-18T14:45:18.868Z,86.20
2017-09-18T14:47:47.178Z,89.80
2017-09-18T14:50:14.665Z,89.60
2017-09-18T14:52:42.913Z,92.00
2017-09-18T14:55:11.188Z,92.00
2017-09-18T14:57:38.681Z,92.00
2017-09-18T15:00:06.217Z,92.40
2017-09-18T15:02:33.704Z,92.10
2017-09-18T15:05:02.218Z,93.60
2017-09-18T15:07:29.746Z,93.60
2017-09-18T15:09:57.237Z,94.00
2017-09-18T15:12:24.726Z,93.60
2017-09-18T15:14:52.237Z,93.80
2017-09-18T15:17:20.480Z,94.00
2017-09-18T15:19:47.995Z,93.90
2017-09-18T15:22:15.485Z,94.90
2017-09-18T15:24:43.765Z,95.30
2017-09-18T15:27:11.257Z,95.30
2017-09-18T15:29:38.771Z,94.80
2017-09-18T15:32:06.296Z,94.90
2017-09-18T15:34:33.794Z,94.90
2017-09-18T15:37:01.322Z,95.10
2017-09-18T15:39:28.809Z,94.60
2017-09-18T15:41:57.060Z,94.20
2017-09-18T15:44:24.573Z,94.10
2017-09-18T15:46:52.062Z,94.00
2017-09-18T15:49:19.576Z,93.80
2017-09-18T15:51:47.056Z,93.20
2017-09-18T15:54:14.576Z,92.90
2017-09-18T15:56:42.832Z,93.40
2017-09-18T15:59:11.112Z,93.40
2017-09-18T16:01:38.603Z,93.40
2017-09-18T16:04:06.119Z,94.30
2017-09-18T16:06:33.629Z,93.50
2017-09-18T16:09:01.115Z,94.00
2017-09-18T16:11:28.632Z,93.30
2017-09-18T16:13:56.234Z,93.50
2017-09-18T16:16:23.719Z,93.70
2017-09-18T16:18:51.245Z,94.00
2017-09-18T16:21:19.502Z,93.90
2017-09-18T16:23:47.757Z,94.40
2017-09-18T16:26:16.040Z,95.00
2017-09-18T16:28:43.557Z,95.00
2017-09-18T16:31:11.059Z,95.00
2017-09-18T16:33:38.578Z,95.00
2017-09-18T16:36:06.824Z,95.10
2017-09-18T16:38:35.110Z,94.90
2017-09-18T16:41:02.596Z,94.80
2017-09-18T16:43:30.091Z,95.10
2017-09-18T16:45:57.609Z,95.30
2017-09-18T16:48:25.860Z,95.10
2017-09-18T16:50:54.147Z,95.10
2017-09-18T16:53:21.636Z,95.10
2017-09-18T16:55:49.152Z,94.80
2017-09-18T16:58:16.676Z,94.90
2017-09-18T17:00:44.161Z,95.20
2017-09-18T17:03:11.645Z,94.80
2017-09-18T17:05:39.970Z,95.20
2017-09-18T17:08:07.449Z,95.10
2017-09-18T17:10:35.737Z,95.00
2017-09-18T17:13:03.228Z,95.00
2017-09-18T17:15:30.793Z,95.40
2017-09-18T17:17:59.084Z,95.00
2017-09-18T17:20:26.581Z,95.00
2017-09-18T17:22:54.179Z,95.00
2017-09-18T17:25:21.764Z,95.10
2017-09-18T17:27:49.285Z,94.80
2017-09-18T17:30:16.781Z,95.00
2017-09-18T17:32:45.060Z,95.30
2017-09-18T17:35:12.550Z,95.30
2017-09-18T17:37:40.064Z,95.40
2017-09-18T17:40:07.548Z,95.60
2017-09-18T17:42:35.095Z,95.60
2017-09-18T17:45:02.591Z,95.90
2017-09-18T17:47:30.089Z,96.10
2017-09-18T17:49:58.374Z,96.30
2017-09-18T17:52:25.902Z,96.30
2017-09-18T17:54:54.167Z,96.40
2017-09-18T17:57:22.473Z,96.20
2017-09-18T17:59:49.973Z,96.20
2017-09-18T18:02:18.273Z,96.10
2017-09-18T18:04:45.778Z,96.10
2017-09-18T18:07:14.184Z,96.40
2017-09-18T18:09:41.725Z,96.30
2017-09-18T18:12:09.202Z,96.60
2017-09-18T18:14:36.717Z,96.50
2017-09-18T18:17:04.406Z,96.40
2017-09-18T18:19:32.813Z,96.50
2017-09-18T18:22:00.297Z,96.50
2017-09-18T18:24:27.788Z,96.60
2017-09-18T18:26:55.310Z,96.30
2017-09-18T18:29:23.560Z,96.90
2017-09-18T18:31:51.087Z,96.90
2017-09-18T18:34:18.586Z,97.10
2017-09-18T18:36:46.072Z,97.00
2017-09-18T18:39:13.593Z,96.70
2017-09-18T18:41:41.086Z,96.80
2017-09-18T18:44:09.338Z,96.70
2017-09-18T18:46:37.617Z,96.60
2017-09-18T18:49:05.108Z,96.60
2017-09-18T18:51:32.635Z,96.50
2017-09-18T18:54:00.128Z,96.60
2017-09-18T18:56:28.393Z,96.80
2017-09-18T18:58:56.682Z,96.60
2017-09-18T19:01:24.181Z,96.60
2017-09-18T19:03:51.706Z,96.50
2017-09-18T19:06:19.187Z,96.70
2017-09-18T19:08:46.725Z,96.90
2017-09-18T19:11:15.010Z,96.30
2017-09-18T19:13:42.499Z,96.30
2017-09-18T19:16:10.025Z,96.60
2017-09-18T19:18:37.533Z,96.30
2017-09-18T19:21:05.028Z,96.30
2017-09-18T19:23:32.546Z,96.00
2017-09-18T19:26:00.065Z,96.40
2017-09-18T19:28:27.549Z,96.50
2017-09-18T19:30:55.081Z,96.50
2017-09-18T19:33:22.568Z,96.60
2017-09-18T19:35:50.865Z,96.70
2017-09-18T19:38:18.358Z,96.70
2017-09-18T19:40:45.852Z,96.80
2017-09-18T19:43:13.385Z,97.10
2017-09-18T19:45:40.886Z,97.30
2017-09-18T19:48:08.381Z,97.10
2017-09-18T19:50:35.913Z,97.40
2017-09-18T19:53:03.406Z,97.30
2017-09-18T19:55:30.897Z,97.30
2017-09-18T19:57:58.424Z,97.10
2017-09-18T20:00:26.678Z,97.10
2017-09-18T20:02:54.962Z,97.30
2017-09-18T20:05:22.454Z,97.30
2017-09-18T20:07:49.976Z,97.50
2017-09-18T20:10:17.469Z,97.40
2017-09-18T20:12:45.753Z,97.50
2017-09-18T20:15:13.283Z,97.50
2017-09-18T20:17:41.555Z,97.70
2017-09-18T20:20:09.089Z,97.70
2017-09-18T20:22:36.585Z,97.50
2017-09-18T20:25:04.108Z,97.30
2017-09-18T20:27:31.632Z,97.50
2017-09-18T20:29:59.125Z,97.40
2017-09-18T20:32:26.671Z,97.50
2017-09-18T20:34:54.164Z,97.50
2017-09-18T20:37:21.676Z,97.50
2017-09-18T20:39:49.189Z,97.70
2017-09-18T20:42:16.707Z,97.70
2017-09-18T20:44:44.225Z,97.60
2017-09-18T20:47:11.754Z,97.50
2017-09-18T20:49:40.011Z,97.70
2017-09-18T20:52:08.276Z,97.60
2017-09-18T20:54:36.573Z,97.50
2017-09-18T20:57:04.155Z,97.50
2017-09-18T20:59:31.656Z,97.50
2017-09-18T21:01:59.187Z,97.60
2017-09-18T21:04:26.693Z,97.40
2017-09-18T21:06:54.185Z,97.40
2017-09-18T21:09:21.701Z,97.40
2017-09-18T21:11:49.987Z,97.50
2017-09-18T21:14:17.476Z,97.50
2017-09-18T21:16:44.996Z,97.50
2017-09-18T21:19:12.493Z,97.50
2017-09-18T21:21:40.020Z,97.70
2017-09-18T21:24:07.509Z,97.70
2017-09-18T21:26:35.034Z,97.50
2017-09-18T21:29:02.536Z,97.60
2017-09-18T21:31:30.081Z,97.40
2017-09-18T21:33:57.628Z,97.50
2017-09-18T21:36:25.123Z,97.50
2017-09-18T21:38:52.657Z,97.70
2017-09-18T21:41:20.754Z,97.40
2017-09-18T21:43:48.279Z,97.50
2017-09-18T21:46:15.862Z,97.70
2017-09-18T21:48:44.160Z,97.70
2017-09-18T21:51:11.701Z,97.70
2017-09-18T21:56:15.467Z,97.80
2017-09-18T21:58:43.209Z,97.80
2017-09-18T22:01:10.733Z,97.50
2017-09-18T22:03:38.225Z,97.60
2017-09-18T22:06:05.756Z,97.60
2017-09-18T22:08:34.050Z,97.60
2017-09-18T22:11:01.556Z,97.50
2017-09-18T22:13:29.846Z,97.60
2017-09-18T22:15:57.348Z,97.60
2017-09-18T22:18:24.877Z,97.70
2017-09-18T22:20:52.384Z,97.70
2017-09-18T22:23:19.916Z,97.70
2017-09-18T22:25:47.425Z,97.70
2017-09-18T22:28:14.957Z,97.60
2017-09-18T22:30:42.469Z,97.50
2017-09-18T22:33:09.992Z,97.60
2017-09-18T22:35:38.336Z,97.50
2017-09-18T22:38:06.604Z,97.60
2017-09-18T22:40:34.136Z,97.60
2017-09-18T22:43:02.409Z,97.70
2017-09-18T22:45:29.940Z,97.60
2017-09-18T22:47:58.209Z,97.50
2017-09-18T22:50:26.474Z,97.70
2017-09-18T22:52:54.008Z,97.70
2017-09-18T22:55:22.270Z,97.80
2017-09-18T22:57:49.809Z,97.80
2017-09-18T23:00:18.084Z,97.70
2017-09-18T23:02:45.593Z,97.70
2017-09-18T23:05:13.130Z,97.80
2017-09-18T23:07:40.636Z,98.10
2017-09-18T23:10:08.202Z,98.00
2017-09-18T23:12:35.684Z,97.90
2017-09-18T23:15:03.944Z,97.80
2017-09-18T23:17:32.240Z,97.90
2017-09-18T23:19:59.748Z,97.80
2017-09-18T23:22:28.062Z,98.00
2017-09-18T23:24:55.569Z,98.00
2017-09-18T23:27:23.832Z,97.80
2017-09-18T23:29:52.121Z,97.70
2017-09-18T23:32:19.613Z,97.70
2017-09-18T23:34:47.141Z,97.70
2017-09-18T23:37:14.637Z,97.90
2017-09-18T23:39:42.176Z,97.80
2017-09-18T23:42:09.686Z,97.80
2017-09-18T23:44:37.979Z,98.10
2017-09-18T23:47:05.501Z,98.10
2017-09-18T23:49:33.777Z,98.00
2017-09-18T23:52:01.309Z,98.00
2017-09-18T23:54:29.569Z,98.10
2017-09-18T23:56:57.829Z,97.90
2017-09-18T23:59:26.129Z,98.10
